Time;durP1;ratioP1;P1;durP2;ratioP2;P2;SDS_P1;SDS_P2;PMS_P1;PMS_P2;Temp;Humidity;BMP_temperature;BMP_pressure;BME280_temperature;BME280_humidity;BME280_pressure;Samples;Min_cycle;Max_cycle;Signal;HPM_P1;HPM_P2
2021/04/23 00:01:15;;;;;;;15.40;12.05;;;13.50;99.90;;;;;;5122957;28;20028;-72
2021/04/23 00:03:55;;;;;;;19.45;15.57;;;13.40;99.90;;;;;;5123353;28;20029;-75
2021/04/23 00:06:33;;;;;;;17.08;13.45;;;13.40;99.90;;;;;;5123001;28;20481;-76
2021/04/23 00:09:17;;;;;;;15.80;11.77;;;13.20;99.90;;;;;;5122462;28;20016;-79
2021/04/23 00:12:05;;;;;;;14.00;11.15;;;13.00;99.90;;;;;;5124696;28;20096;-77
2021/04/23 00:14:46;;;;;;;16.10;12.00;;;13.00;99.90;;;;;;5121442;28;20393;-78
2021/04/23 00:17:13;;;;;;;16.77;12.38;;;13.00;99.90;;;;;;5122725;28;20024;-72
2021/04/23 00:19:40;;;;;;;16.00;11.88;;;13.00;99.90;;;;;;5122286;27;20397;-76
2021/04/23 00:22:07;;;;;;;23.45;13.15;;;13.00;99.90;;;;;;5120785;28;20118;-76
2021/04/23 00:24:34;;;;;;;14.70;11.98;;;12.90;99.90;;;;;;5122550;28;20018;-73
2021/04/23 00:27:01;;;;;;;14.52;12.88;;;12.90;99.90;;;;;;5120284;28;20626;-77
2021/04/23 00:29:27;;;;;;;13.43;11.77;;;12.90;99.90;;;;;;5120903;28;20024;-72
2021/04/23 00:34:39;;;;;;;16.67;14.55;;;12.90;99.90;;;;;;5122398;28;20043;-73
2021/04/23 00:37:06;;;;;;;15.60;13.43;;;12.90;99.90;;;;;;5122209;27;20355;-72
2021/04/23 00:39:34;;;;;;;19.90;16.70;;;12.90;99.90;;;;;;5121387;28;20066;-73
2021/04/23 00:42:05;;;;;;;17.92;14.75;;;12.90;99.90;;;;;;5120181;28;20033;-72
2021/04/23 00:44:31;;;;;;;19.85;15.32;;;13.00;99.80;;;;;;5122368;28;20031;-75
2021/04/23 00:46:57;;;;;;;16.88;14.40;;;12.90;99.90;;;;;;5122341;28;20107;-79
2021/04/23 00:49:23;;;;;;;19.80;15.57;;;13.00;99.40;;;;;;5121614;28;20072;-80
2021/04/23 00:51:59;;;;;;;16.15;14.10;;;12.90;99.90;;;;;;5120989;28;20073;-72
2021/04/23 00:54:26;;;;;;;14.02;12.07;;;12.90;99.90;;;;;;5122509;28;20073;-80
2021/04/23 00:56:52;;;;;;;18.75;16.05;;;12.80;99.90;;;;;;5120865;28;20051;-73
2021/04/23 00:59:18;;;;;;;18.73;14.55;;;12.80;99.90;;;;;;5122424;28;20425;-80
2021/04/23 01:02:01;;;;;;;14.75;12.73;;;12.90;99.90;;;;;;5123089;28;20031;-80
2021/04/23 01:04:30;;;;;;;16.17;14.00;;;12.90;99.90;;;;;;5121714;28;20195;-79
2021/04/23 01:06:57;;;;;;;17.40;14.68;;;12.80;99.90;;;;;;5122054;28;20347;-80
2021/04/23 01:09:26;;;;;;;17.92;15.18;;;12.80;99.90;;;;;;5122027;28;20016;-72
2021/04/23 01:11:54;;;;;;;20.17;16.77;;;12.70;99.90;;;;;;5121078;28;20369;-81
2021/04/23 01:14:21;;;;;;;17.00;14.55;;;12.70;99.90;;;;;;5120650;28;20106;-73
2021/04/23 01:16:47;;;;;;;15.63;12.00;;;12.70;99.90;;;;;;5119614;28;20027;-77
2021/04/23 01:19:18;;;;;;;14.10;11.60;;;12.80;99.90;;;;;;5119713;28;20041;-77
2021/04/23 01:21:44;;;;;;;13.02;11.05;;;12.80;99.70;;;;;;5120224;28;20016;-78
2021/04/23 01:24:11;;;;;;;14.55;11.77;;;12.70;99.80;;;;;;5120392;28;20000;-72
2021/04/23 01:26:43;;;;;;;18.55;14.55;;;12.80;99.70;;;;;;5118079;28;20077;-80
2021/04/23 01:29:10;;;;;;;16.35;13.02;;;12.70;99.90;;;;;;5120688;28;20020;-80
2021/04/23 01:31:39;;;;;;;17.83;13.82;;;12.70;99.90;;;;;;5121183;28;20504;-80
2021/04/23 01:34:13;;;;;;;15.07;12.15;;;12.60;99.90;;;;;;5121994;28;20056;-73
2021/04/23 01:36:40;;;;;;;16.58;14.30;;;12.70;99.90;;;;;;5120615;28;20106;-73
2021/04/23 01:39:09;;;;;;;17.98;14.63;;;12.70;99.90;;;;;;5119144;28;20024;-74
2021/04/23 01:41:35;;;;;;;16.42;14.23;;;12.70;99.90;;;;;;5119310;28;20012;-72
2021/04/23 01:44:02;;;;;;;16.33;14.05;;;12.50;99.90;;;;;;5120216;28;20106;-73
2021/04/23 01:46:28;;;;;;;19.13;15.05;;;12.40;99.90;;;;;;5121798;28;20024;-77
2021/04/23 01:48:54;;;;;;;19.58;15.38;;;12.50;99.90;;;;;;5120052;28;20069;-72
2021/04/23 01:51:20;;;;;;;17.45;14.52;;;12.40;99.90;;;;;;5119975;28;20166;-79
2021/04/23 01:53:46;;;;;;;18.88;15.70;;;12.30;99.90;;;;;;5119753;28;20051;-76
2021/04/23 01:56:12;;;;;;;19.60;16.50;;;12.30;99.90;;;;;;5120411;28;20027;-80
2021/04/23 01:58:39;;;;;;;19.27;16.13;;;12.30;99.90;;;;;;5117852;28;20020;-80
2021/04/23 02:01:08;;;;;;;19.45;16.08;;;12.30;99.90;;;;;;5119722;28;20011;-72
2021/04/23 02:03:35;;;;;;;19.10;16.60;;;12.40;99.90;;;;;;5119651;28;20065;-74
2021/04/23 02:06:03;;;;;;;18.00;15.52;;;12.40;99.90;;;;;;5117292;28;20032;-73
2021/04/23 02:08:30;;;;;;;23.75;19.17;;;12.30;99.90;;;;;;5118425;28;20034;-77
2021/04/23 02:11:17;;;;;;;23.85;18.70;;;12.20;99.90;;;;;;5120019;28;20023;-80
2021/04/23 02:13:45;;;;;;;24.83;20.05;;;12.20;99.90;;;;;;5119516;28;20041;-79
2021/04/23 02:16:14;;;;;;;22.52;18.25;;;12.00;99.90;;;;;;5121569;28;20045;-80
2021/04/23 02:18:41;;;;;;;22.45;18.38;;;12.20;99.90;;;;;;5119923;28;20019;-72
2021/04/23 02:21:08;;;;;;;22.05;19.17;;;12.20;99.90;;;;;;5121603;28;20058;-73
2021/04/23 02:23:34;;;;;;;24.65;19.08;;;12.10;99.90;;;;;;5121420;28;20051;-76
2021/04/23 02:26:00;;;;;;;24.70;19.25;;;12.10;99.90;;;;;;5119862;28;20019;-73
2021/04/23 02:28:26;;;;;;;23.48;19.90;;;12.00;99.90;;;;;;5119953;28;20015;-81
2021/04/23 02:31:01;;;;;;;24.10;20.27;;;12.00;99.90;;;;;;5119425;28;20024;-72
2021/04/23 02:33:27;;;;;;;25.15;19.70;;;12.00;99.90;;;;;;5121503;28;20018;-73
2021/04/23 02:35:56;;;;;;;24.98;20.60;;;12.20;99.90;;;;;;5120917;28;20373;-76
2021/04/23 02:38:23;;;;;;;24.52;19.80;;;12.10;99.90;;;;;;5121792;28;20026;-81
2021/04/23 02:40:51;;;;;;;25.63;20.42;;;12.30;99.90;;;;;;5124592;28;20022;-71
2021/04/23 02:43:22;;;;;;;26.10;20.95;;;12.20;99.90;;;;;;5124747;28;20045;-72
2021/04/23 02:45:49;;;;;;;24.25;19.92;;;12.20;99.90;;;;;;5124178;28;20027;-76
2021/04/23 02:48:16;;;;;;;24.48;19.77;;;12.20;99.90;;;;;;5121401;28;20028;-74
2021/04/23 02:50:46;;;;;;;28.75;21.70;;;12.20;99.90;;;;;;5122969;27;20008;-75
2021/04/23 02:53:13;;;;;;;28.55;23.48;;;12.20;99.90;;;;;;5124523;28;20431;-72
2021/04/23 02:55:39;;;;;;;27.23;22.58;;;12.30;99.90;;;;;;5123663;28;20046;-79
2021/04/23 02:58:08;;;;;;;28.67;23.58;;;12.20;99.90;;;;;;5122468;28;20126;-75
2021/04/23 03:00:37;;;;;;;27.20;22.55;;;12.10;99.90;;;;;;5124041;28;20027;-79
2021/04/23 03:03:05;;;;;;;29.40;23.02;;;12.10;99.90;;;;;;5125009;28;20388;-76
2021/04/23 03:05:32;;;;;;;26.23;21.60;;;12.10;99.90;;;;;;5124611;28;20016;-80
2021/04/23 03:07:59;;;;;;;25.52;20.95;;;12.00;99.90;;;;;;5124222;28;20428;-73
2021/04/23 03:10:33;;;;;;;24.27;20.27;;;12.10;99.90;;;;;;5123140;28;20016;-73
2021/04/23 03:13:08;;;;;;;29.08;22.20;;;12.00;99.90;;;;;;5124190;28;20059;-80
2021/04/23 03:15:34;;;;;;;26.70;21.30;;;11.90;99.90;;;;;;5124618;27;20032;-79
2021/04/23 03:18:00;;;;;;;22.95;19.73;;;11.90;99.90;;;;;;5123302;28;20098;-78
2021/04/23 03:20:28;;;;;;;23.20;19.85;;;12.10;99.90;;;;;;5121339;28;20024;-74
2021/04/23 03:22:55;;;;;;;26.50;19.98;;;12.10;99.90;;;;;;5123754;28;20123;-80
2021/04/23 03:25:21;;;;;;;23.27;19.42;;;11.80;99.90;;;;;;5123698;28;20120;-73
2021/04/23 03:27:47;;;;;;;21.80;18.63;;;11.80;99.90;;;;;;5122874;28;20045;-76
2021/04/23 03:30:17;;;;;;;22.60;18.15;;;11.80;99.90;;;;;;5122766;28;20024;-75
2021/04/23 03:32:44;;;;;;;21.58;18.38;;;11.80;99.90;;;;;;5123186;28;20055;-72
2021/04/23 03:35:11;;;;;;;20.73;17.42;;;11.70;99.90;;;;;;5120483;28;20024;-76
2021/04/23 03:37:38;;;;;;;21.55;17.08;;;11.60;99.90;;;;;;5122068;28;20047;-73
2021/04/23 03:40:05;;;;;;;19.90;16.38;;;11.60;99.90;;;;;;5123417;28;20020;-76
2021/04/23 03:42:32;;;;;;;21.60;17.58;;;11.60;99.90;;;;;;5123065;28;20493;-79
2021/04/23 03:44:58;;;;;;;20.63;17.45;;;11.60;99.90;;;;;;5125140;28;20020;-77
2021/04/23 03:47:24;;;;;;;18.75;16.00;;;11.40;99.90;;;;;;5124088;28;20027;-78
2021/04/23 03:49:50;;;;;;;18.73;15.55;;;11.60;99.90;;;;;;5124497;28;20047;-74
2021/04/23 03:52:17;;;;;;;20.40;16.25;;;11.60;99.90;;;;;;5123572;28;20020;-72
2021/04/23 03:54:43;;;;;;;18.52;15.75;;;11.50;99.90;;;;;;5122695;28;20019;-80
2021/04/23 03:57:10;;;;;;;20.70;16.70;;;11.40;99.90;;;;;;5123114;28;20361;-80
2021/04/23 03:59:37;;;;;;;20.27;15.95;;;11.40;99.90;;;;;;5121278;28;20023;-72
2021/04/23 04:02:03;;;;;;;18.42;15.57;;;11.50;99.90;;;;;;5122420;28;20099;-72
2021/04/23 04:04:29;;;;;;;20.17;15.73;;;11.40;99.90;;;;;;5119549;28;20020;-77
2021/04/23 04:06:55;;;;;;;20.23;16.48;;;11.50;99.90;;;;;;5122375;28;20020;-72
2021/04/23 04:09:21;;;;;;;21.55;17.08;;;11.40;99.90;;;;;;5120160;28;20065;-73
2021/04/23 04:11:47;;;;;;;22.52;19.30;;;11.50;99.90;;;;;;5121201;28;20027;-72
2021/04/23 04:14:13;;;;;;;32.72;22.52;;;11.40;99.90;;;;;;5123447;28;20027;-75
2021/04/23 04:16:40;;;;;;;31.67;22.38;;;11.50;99.90;;;;;;5123714;27;20094;-78
2021/04/23 04:19:06;;;;;;;33.05;24.63;;;11.50;99.90;;;;;;5121474;28;20020;-75
2021/04/23 04:21:32;;;;;;;31.52;23.33;;;11.60;99.90;;;;;;5121752;28;20416;-79
2021/04/23 04:23:58;;;;;;;22.92;18.20;;;11.70;99.90;;;;;;5121976;28;20020;-73
2021/04/23 04:26:24;;;;;;;23.52;18.33;;;11.50;99.90;;;;;;5118464;28;20055;-72
2021/04/23 04:28:50;;;;;;;20.42;16.52;;;11.50;99.90;;;;;;5120884;28;20034;-80
2021/04/23 04:31:16;;;;;;;27.55;18.92;;;11.60;99.90;;;;;;5120676;28;20085;-71
2021/04/23 04:33:42;;;;;;;20.58;16.27;;;11.50;99.90;;;;;;5119680;27;20020;-72
2021/04/23 04:36:09;;;;;;;24.05;16.77;;;11.50;99.90;;;;;;5121649;28;20015;-72
2021/04/23 04:38:35;;;;;;;24.17;18.40;;;11.50;99.90;;;;;;5121369;28;20019;-72
2021/04/23 04:41:02;;;;;;;32.30;20.70;;;11.50;99.90;;;;;;5121471;28;20076;-73
2021/04/23 04:43:27;;;;;;;28.85;22.63;;;11.40;99.90;;;;;;5120369;28;20024;-72
2021/04/23 04:45:54;;;;;;;26.02;20.98;;;11.50;99.90;;;;;;5118379;28;20057;-73
2021/04/23 04:48:22;;;;;;;29.70;20.98;;;11.60;99.90;;;;;;5120850;27;20027;-80
2021/04/23 04:50:55;;;;;;;26.48;20.35;;;11.50;99.90;;;;;;5119475;28;20023;-72
2021/04/23 04:53:22;;;;;;;100.40;49.20;;;11.60;99.90;;;;;;5120322;28;20125;-75
2021/04/23 04:55:52;;;;;;;31.58;20.88;;;11.70;99.90;;;;;;5122283;28;20027;-72
2021/04/23 04:58:21;;;;;;;30.08;20.90;;;11.60;99.90;;;;;;5120932;28;20017;-72
2021/04/23 05:00:48;;;;;;;32.83;22.48;;;11.50;99.90;;;;;;5121455;28;20032;-76
2021/04/23 05:03:14;;;;;;;61.00;34.13;;;11.60;99.90;;;;;;5121955;28;20003;-72
2021/04/23 05:05:41;;;;;;;56.08;28.88;;;11.50;99.90;;;;;;5120711;28;20030;-73
2021/04/23 05:08:08;;;;;;;35.72;22.80;;;11.30;99.90;;;;;;5119107;28;20016;-81
2021/04/23 05:10:34;;;;;;;34.70;21.23;;;11.40;99.90;;;;;;5120824;28;20016;-75
2021/04/23 05:13:00;;;;;;;32.47;21.65;;;11.60;99.90;;;;;;5119545;28;20020;-72
2021/04/23 05:15:28;;;;;;;33.08;21.90;;;11.60;99.90;;;;;;5120272;27;20000;-78
2021/04/23 05:17:54;;;;;;;27.95;21.38;;;11.50;99.90;;;;;;5118596;28;20041;-79
2021/04/23 05:20:22;;;;;;;28.65;20.48;;;11.50;99.90;;;;;;5118657;28;20097;-72
2021/04/23 05:22:49;;;;;;;31.27;21.90;;;11.50;99.90;;;;;;5119379;28;20018;-77
2021/04/23 05:25:23;;;;;;;31.85;22.25;;;11.50;99.90;;;;;;5116853;28;20073;-72
2021/04/23 05:27:49;;;;;;;;;;;11.50;99.90;;;;;;5119140;28;20044;-72
2021/04/23 05:30:19;;;;;;;35.67;24.95;;;11.50;99.90;;;;;;5121033;28;19911;-78
2021/04/23 05:32:46;;;;;;;33.35;23.25;;;11.60;99.90;;;;;;5120889;28;20050;-71
2021/04/23 05:35:14;;;;;;;40.78;26.77;;;11.50;99.90;;;;;;5120828;28;20020;-78
2021/04/23 05:37:40;;;;;;;50.22;30.63;;;11.60;99.90;;;;;;5121418;28;20402;-77
2021/04/23 05:40:09;;;;;;;51.28;29.95;;;11.60;99.90;;;;;;5118686;28;20015;-72
2021/04/23 05:42:35;;;;;;;42.70;26.65;;;11.60;99.90;;;;;;5118322;28;20104;-76
2021/04/23 05:45:01;;;;;;;28.20;20.23;;;11.60;99.90;;;;;;5116827;28;20027;-75
2021/04/23 05:47:27;;;;;;;154.30;118.40;;;11.60;99.90;;;;;;5119974;28;20022;-71
2021/04/23 05:49:53;;;;;;;79.75;57.08;;;11.60;99.90;;;;;;5119217;28;20098;-78
2021/04/23 05:52:19;;;;;;;29.20;23.38;;;11.70;99.90;;;;;;5121443;28;20054;-75
2021/04/23 05:54:45;;;;;;;27.45;22.17;;;11.60;99.90;;;;;;5119986;28;20043;-71
2021/04/23 05:57:12;;;;;;;24.65;18.75;;;11.60;99.90;;;;;;5122302;28;20111;-72
2021/04/23 05:59:37;;;;;;;27.15;20.27;;;11.70;99.90;;;;;;5120701;28;20016;-73
2021/04/23 06:02:04;;;;;;;31.73;23.30;;;11.80;99.90;;;;;;5120997;27;20039;-73
2021/04/23 06:04:30;;;;;;;27.15;20.40;;;11.90;99.90;;;;;;5120344;28;20493;-78
2021/04/23 06:06:56;;;;;;;29.77;20.73;;;12.00;99.90;;;;;;5120456;28;20023;-80
2021/04/23 06:09:22;;;;;;;30.02;20.50;;;12.00;99.90;;;;;;5120701;28;20020;-72
2021/04/23 06:11:48;;;;;;;24.50;18.27;;;12.20;99.90;;;;;;5122636;28;20020;-74
2021/04/23 06:14:14;;;;;;;25.85;19.50;;;12.00;99.90;;;;;;5126047;28;20071;-79
2021/04/23 06:16:40;;;;;;;25.15;17.45;;;12.00;99.90;;;;;;5124475;28;20027;-72
2021/04/23 06:19:07;;;;;;;28.60;21.02;;;12.10;99.90;;;;;;5123038;28;20027;-80
2021/04/23 06:21:34;;;;;;;26.63;18.55;;;12.20;99.90;;;;;;5124893;28;20116;-72
2021/04/23 06:24:00;;;;;;;27.75;18.13;;;12.30;99.40;;;;;;5126391;28;20095;-72
2021/04/23 06:26:26;;;;;;;23.35;17.10;;;12.40;99.10;;;;;;5124805;28;20039;-79
2021/04/23 06:28:52;;;;;;;21.20;15.18;;;12.30;99.20;;;;;;5126047;28;20079;-73
2021/04/23 06:31:19;;;;;;;30.52;23.60;;;12.30;98.60;;;;;;5123054;28;20058;-78
2021/04/23 06:33:47;;;;;;;27.50;22.17;;;12.30;98.50;;;;;;5125516;28;20103;-73
2021/04/23 06:36:14;;;;;;;22.25;14.73;;;12.40;98.40;;;;;;5122718;28;20079;-73
2021/04/23 06:38:41;;;;;;;18.35;13.73;;;12.30;97.80;;;;;;5124780;28;20415;-72
2021/04/23 06:41:07;;;;;;;23.83;19.83;;;12.40;97.80;;;;;;5124494;28;20028;-80
2021/04/23 06:43:33;;;;;;;28.58;22.85;;;12.50;98.00;;;;;;5125616;28;20030;-77
2021/04/23 06:45:59;;;;;;;19.40;16.20;;;12.70;98.00;;;;;;5122767;28;20030;-80
2021/04/23 06:48:25;;;;;;;22.25;16.60;;;12.60;97.80;;;;;;5124460;28;20019;-79
2021/04/23 06:50:52;;;;;;;26.52;16.80;;;12.80;97.80;;;;;;5124224;28;20087;-72
2021/04/23 06:53:19;;;;;;;22.10;16.58;;;12.80;98.60;;;;;;5124761;28;20094;-75
2021/04/23 06:55:46;;;;;;;26.85;17.23;;;12.90;98.30;;;;;;5121397;28;20025;-75
2021/04/23 06:58:12;;;;;;;21.40;14.63;;;12.80;97.10;;;;;;5123879;28;20038;-72
2021/04/23 07:00:41;;;;;;;20.60;14.98;;;12.90;96.90;;;;;;5122568;28;20122;-80
2021/04/23 07:03:09;;;;;;;18.08;13.18;;;12.70;96.70;;;;;;5124357;28;20377;-72
2021/04/23 07:05:43;;;;;;;25.50;17.05;;;12.80;96.20;;;;;;5124287;28;20024;-73
2021/04/23 07:08:10;;;;;;;17.90;12.70;;;12.90;96.40;;;;;;5124949;28;20024;-73
2021/04/23 07:10:36;;;;;;;18.40;11.63;;;12.90;95.50;;;;;;5124705;28;20027;-74
2021/04/23 07:13:02;;;;;;;17.95;12.35;;;13.10;95.90;;;;;;5126194;28;20016;-78
2021/04/23 07:15:30;;;;;;;20.25;14.20;;;13.10;95.90;;;;;;5122441;28;20067;-78
2021/04/23 07:17:56;;;;;;;17.67;13.32;;;13.10;96.30;;;;;;5120785;28;20051;-75
2021/04/23 07:20:24;;;;;;;27.63;17.48;;;12.90;95.50;;;;;;5122523;28;20024;-76
2021/04/23 07:22:51;;;;;;;16.95;12.20;;;13.10;95.30;;;;;;5120969;28;20051;-79
2021/04/23 07:25:18;;;;;;;24.92;15.95;;;13.00;94.70;;;;;;5122564;28;20027;-77
2021/04/23 07:27:45;;;;;;;25.02;15.43;;;13.00;94.80;;;;;;5122336;28;20043;-79
2021/04/23 07:30:16;;;;;;;19.88;12.98;;;13.10;94.00;;;;;;5124641;28;20072;-72
2021/04/23 07:32:42;;;;;;;18.48;11.32;;;13.00;94.30;;;;;;5121729;28;20027;-78
2021/04/23 07:35:09;;;;;;;16.42;10.95;;;13.20;94.10;;;;;;5121921;28;20028;-71
2021/04/23 07:37:35;;;;;;;17.45;12.25;;;13.30;93.50;;;;;;5119832;28;20027;-78
2021/04/23 07:40:03;;;;;;;26.80;15.88;;;13.40;93.40;;;;;;5122337;28;20082;-73
2021/04/23 07:42:29;;;;;;;28.92;17.35;;;13.40;92.50;;;;;;5121298;28;20055;-81
2021/04/23 07:44:55;;;;;;;34.67;21.10;;;13.20;92.60;;;;;;5120514;28;20474;-78
2021/04/23 07:47:22;;;;;;;22.35;13.32;;;13.20;92.10;;;;;;5122064;27;20496;-75
2021/04/23 07:49:49;;;;;;;25.98;16.63;;;13.40;92.80;;;;;;5122720;28;20538;-80
2021/04/23 07:52:15;;;;;;;34.15;19.38;;;13.80;92.90;;;;;;5119268;28;20098;-74
2021/04/23 07:54:41;;;;;;;24.58;16.77;;;13.90;90.60;;;;;;5119948;28;20074;-80
2021/04/23 07:57:09;;;;;;;27.08;18.13;;;14.20;90.70;;;;;;5122277;28;20007;-75
2021/04/23 07:59:37;;;;;;;23.70;16.42;;;14.60;89.90;;;;;;5124710;28;20016;-79
2021/04/23 08:02:04;;;;;;;23.48;15.35;;;14.90;84.70;;;;;;5117352;28;20030;-77
2021/04/23 08:04:30;;;;;;;24.23;15.23;;;15.10;86.50;;;;;;5118166;28;20031;-81
2021/04/23 08:06:56;;;;;;;19.38;12.48;;;15.70;86.60;;;;;;5120067;28;20025;-73
2021/04/23 08:09:22;;;;;;;21.17;13.95;;;15.80;89.50;;;;;;5120803;27;20020;-77
2021/04/23 08:11:48;;;;;;;17.58;10.88;;;16.20;88.50;;;;;;5120501;28;20016;-78
2021/04/23 08:14:15;;;;;;;28.88;17.02;;;;;;;;;;5122797;28;20034;-81
2021/04/23 08:16:41;;;;;;;15.07;10.07;;;16.30;81.00;;;;;;5120653;28;20034;-79
2021/04/23 08:19:07;;;;;;;18.42;10.77;;;16.30;76.70;;;;;;5122454;28;20016;-72
2021/04/23 08:21:33;;;;;;;25.30;14.30;;;16.30;78.20;;;;;;5119953;28;20542;-73
2021/04/23 08:23:59;;;;;;;22.40;12.30;;;16.60;79.30;;;;;;5124974;28;20004;-78
2021/04/23 08:26:25;;;;;;;12.95;9.05;;;16.60;74.00;;;;;;5121417;28;20050;-78
2021/04/23 08:28:51;;;;;;;26.58;15.93;;;16.60;75.40;;;;;;5125512;27;20110;-71
2021/04/23 08:31:17;;;;;;;15.27;8.90;;;17.00;74.80;;;;;;5122986;28;20492;-77
2021/04/23 08:33:43;;;;;;;19.63;10.30;;;;;;;;;;5124904;28;20437;-78
2021/04/23 08:36:09;;;;;;;15.50;9.48;;;16.80;67.50;;;;;;5123502;28;20004;-79
2021/04/23 08:38:36;;;;;;;24.75;13.63;;;16.70;63.60;;;;;;5121607;28;20102;-78
2021/04/23 08:41:02;;;;;;;16.15;10.23;;;17.00;67.70;;;;;;5121055;27;20035;-79
2021/04/23 08:43:28;;;;;;;16.23;8.82;;;16.70;64.80;;;;;;5121980;28;20107;-81
2021/04/23 08:45:54;;;;;;;17.10;10.32;;;16.80;65.50;;;;;;5120691;28;20046;-79
2021/04/23 08:48:23;;;;;;;20.00;11.70;;;17.20;68.40;;;;;;5124546;28;20058;-81
2021/04/23 08:50:51;;;;;;;11.13;6.60;;;17.50;65.10;;;;;;5123758;28;20020;-81
2021/04/23 08:53:18;;;;;;;14.98;7.00;;;17.80;60.30;;;;;;5123403;28;20027;-73
2021/04/23 08:55:44;;;;;;;17.42;9.63;;;17.70;57.40;;;;;;5114475;28;20077;-79
2021/04/23 08:58:12;;;;;;;16.38;9.75;;;;;;;;;;5119209;28;20020;-81
2021/04/23 09:00:38;;;;;;;14.10;7.90;;;17.80;58.00;;;;;;5119884;28;20081;-82
2021/04/23 09:03:07;;;;;;;12.32;6.63;;;18.00;57.80;;;;;;5121000;28;20059;-79
2021/04/23 09:05:33;;;;;;;14.00;7.82;;;18.20;55.60;;;;;;5122862;28;20028;-80
2021/04/23 09:08:03;;;;;;;11.82;8.27;;;18.10;53.50;;;;;;5123094;28;20020;-82
2021/04/23 09:10:31;;;;;;;11.77;7.20;;;18.10;57.00;;;;;;5119697;28;20030;-73
2021/04/23 09:13:16;;;;;;;15.98;6.80;;;17.80;50.70;;;;;;5117155;28;20020;-78
2021/04/23 09:15:46;;;;;;;10.55;6.38;;;17.90;51.10;;;;;;5116186;28;20023;-71
2021/04/23 09:18:16;;;;;;;12.32;7.15;;;18.40;54.60;;;;;;5114664;28;20377;-72
2021/04/23 09:20:46;;;;;;;12.82;6.80;;;18.40;52.00;;;;;;5114760;28;20470;-71
2021/04/23 09:23:14;;;;;;;10.95;6.00;;;18.50;55.80;;;;;;5116193;28;20031;-78
2021/04/23 09:25:51;;;;;;;12.77;7.32;;;18.60;55.60;;;;;;5119649;28;20044;-74
2021/04/23 09:28:36;;;;;;;11.07;5.50;;;18.70;54.40;;;;;;5121061;28;20387;-77
2021/04/23 09:31:22;;;;;;;11.48;6.10;;;18.20;49.10;;;;;;5125837;28;20014;-78
2021/04/23 09:34:08;;;;;;;13.10;7.00;;;18.40;49.80;;;;;;5123407;28;20044;-78
2021/04/23 09:36:38;;;;;;;10.70;5.97;;;18.70;51.30;;;;;;5124699;28;20043;-79
2021/04/23 09:39:24;;;;;;;10.93;6.85;;;18.50;50.90;;;;;;5123950;28;20011;-76
2021/04/23 09:42:05;;;;;;;10.35;5.88;;;18.40;49.80;;;;;;5126749;28;20008;-77
2021/04/23 09:44:38;;;;;;;9.43;6.30;;;19.00;52.50;;;;;;5123662;28;20028;-75
2021/04/23 09:47:06;;;;;;;9.73;4.95;;;18.80;48.90;;;;;;5123501;28;20081;-76
2021/04/23 09:49:32;;;;;;;10.20;5.95;;;;;;;;;;5123171;28;20015;-71
2021/04/23 09:52:01;;;;;;;17.92;5.63;;;19.50;50.80;;;;;;5113949;28;20031;-72
2021/04/23 09:54:27;;;;;;;11.05;5.93;;;19.40;50.70;;;;;;5113721;28;20060;-73
2021/04/23 09:56:54;;;;;;;17.25;6.88;;;19.40;49.10;;;;;;5113363;28;20020;-71
2021/04/23 09:59:25;;;;;;;12.57;6.68;;;19.70;51.10;;;;;;5115930;28;20020;-72
2021/04/23 10:02:05;;;;;;;12.85;6.60;;;19.20;48.50;;;;;;5121002;28;20024;-74
2021/04/23 10:04:34;;;;;;;14.40;8.77;;;18.90;51.60;;;;;;5121143;28;20055;-71
2021/04/23 10:07:21;;;;;;;13.80;8.35;;;18.40;49.60;;;;;;5122660;28;20016;-76
2021/04/23 10:10:01;;;;;;;23.95;10.95;;;18.70;48.90;;;;;;5120115;28;20032;-71
2021/04/23 10:12:41;;;;;;;15.65;6.70;;;19.00;50.50;;;;;;5117381;28;20343;-70
2021/04/23 10:15:16;;;;;;;13.43;8.82;;;19.20;49.10;;;;;;5110272;28;20031;-72
2021/04/23 10:17:47;;;;;;;12.30;7.78;;;18.90;49.50;;;;;;5113982;28;20034;-71
2021/04/23 10:20:20;;;;;;;13.25;7.53;;;19.30;50.10;;;;;;5116117;28;20430;-75
2021/04/23 10:22:46;;;;;;;12.32;6.15;;;18.90;48.20;;;;;;5117273;28;20023;-72
2021/04/23 10:25:14;;;;;;;9.40;6.20;;;19.40;48.60;;;;;;5119581;28;20042;-73
2021/04/23 10:27:42;;;;;;;10.32;5.63;;;19.30;46.20;;;;;;5117632;28;20058;-73
2021/04/23 10:30:11;;;;;;;10.27;5.00;;;19.10;44.10;;;;;;5120323;28;20106;-73
2021/04/23 10:32:37;;;;;;;10.85;4.43;;;19.80;46.30;;;;;;5121571;28;20030;-76
2021/04/23 10:35:05;;;;;;;8.13;4.47;;;20.20;48.20;;;;;;5118047;28;20028;-72
2021/04/23 10:37:32;;;;;;;9.73;4.22;;;19.80;44.40;;;;;;5118461;28;20008;-73
2021/04/23 10:39:59;;;;;;;9.07;4.97;;;19.90;45.00;;;;;;5119066;28;20038;-73
2021/04/23 10:42:58;;;;;;;10.52;6.40;;;19.60;44.10;;;;;;5122051;28;20031;-71
2021/04/23 10:45:39;;;;;;;9.13;5.03;;;19.60;45.10;;;;;;5122115;28;20031;-71
2021/04/23 10:48:17;;;;;;;15.80;5.25;;;19.70;44.70;;;;;;5119961;28;20120;-74
2021/04/23 10:50:45;;;;;;;8.25;5.63;;;19.70;45.00;;;;;;5120300;28;20085;-71
2021/04/23 10:53:17;;;;;;;11.55;6.13;;;19.70;45.20;;;;;;5120611;28;20438;-72
2021/04/23 10:55:54;;;;;;;8.48;4.97;;;19.40;45.60;;;;;;5122004;28;20023;-70
2021/04/23 10:58:26;;;;;;;9.65;5.05;;;19.60;45.50;;;;;;5116944;28;20022;-71
2021/04/23 11:01:00;;;;;;;10.63;5.53;;;19.30;43.90;;;;;;5116482;28;20028;-70
2021/04/23 11:03:34;;;;;;;10.18;5.20;;;19.40;46.70;;;;;;5117487;28;20385;-70
2021/04/23 11:06:04;;;;;;;14.70;7.95;;;19.50;44.10;;;;;;5115012;28;20127;-71
2021/04/23 11:08:32;;;;;;;36.42;19.92;;;19.60;43.90;;;;;;5120499;28;20043;-75
2021/04/23 11:11:01;;;;;;;27.25;14.18;;;19.80;43.70;;;;;;5121483;28;20053;-75
2021/04/23 11:13:30;;;;;;;8.65;4.93;;;19.50;40.60;;;;;;5120872;28;20027;-83
2021/04/23 11:16:18;;;;;;;13.93;7.70;;;19.90;42.70;;;;;;5123287;28;20020;-82
2021/04/23 11:18:44;;;;;;;13.43;5.55;;;20.10;43.20;;;;;;5122559;28;20030;-80
2021/04/23 11:21:32;;;;;;;8.18;4.65;;;19.90;43.00;;;;;;5124200;28;20039;-73
2021/04/23 11:24:17;;;;;;;7.28;4.25;;;20.40;44.80;;;;;;5123919;28;20076;-73
2021/04/23 11:26:58;;;;;;;11.40;6.68;;;21.10;45.40;;;;;;5122708;28;20071;-81
2021/04/23 11:29:28;;;;;;;13.18;6.53;;;20.90;44.50;;;;;;5123467;28;20011;-82
2021/04/23 11:32:14;;;;;;;14.45;7.88;;;21.50;45.50;;;;;;5122630;28;20504;-73
2021/04/23 11:34:50;;;;;;;14.95;7.97;;;21.00;42.50;;;;;;5121750;27;20030;-82
2021/04/23 11:37:29;;;;;;;7.47;4.70;;;20.50;41.70;;;;;;5122367;28;20106;-74
2021/04/23 11:39:58;;;;;;;35.72;23.15;;;20.90;43.90;;;;;;5122367;28;20031;-84
2021/04/23 11:42:39;;;;;;;13.32;8.57;;;21.30;42.80;;;;;;5124295;28;20083;-78
2021/04/23 11:45:12;;;;;;;10.60;5.53;;;21.00;40.30;;;;;;5123813;28;20015;-77
2021/04/23 11:47:43;;;;;;;15.53;7.70;;;20.90;42.90;;;;;;5123073;28;20028;-75
2021/04/23 11:50:22;;;;;;;8.70;4.38;;;20.60;42.10;;;;;;5122040;28;20110;-73
2021/04/23 11:52:59;;;;;;;20.98;12.82;;;21.20;43.10;;;;;;5122423;28;20027;-73
2021/04/23 11:55:36;;;;;;;17.63;8.73;;;21.10;43.10;;;;;;5122799;28;20097;-82
2021/04/23 11:58:16;;;;;;;11.57;6.15;;;21.00;41.10;;;;;;5121578;28;20028;-75
2021/04/23 12:00:44;;;;;;;11.70;5.60;;;20.80;38.90;;;;;;5119010;28;20108;-77
2021/04/23 12:03:16;;;;;;;117.90;80.80;;;21.50;42.60;;;;;;5121686;28;20126;-72
2021/04/23 12:05:50;;;;;;;16.45;11.75;;;21.20;42.30;;;;;;5120617;28;20040;-73
2021/04/23 12:08:17;;;;;;;17.08;11.40;;;20.90;42.00;;;;;;5116582;28;20030;-72
2021/04/23 12:10:51;;;;;;;12.65;7.22;;;21.10;42.90;;;;;;5119289;28;20117;-75
2021/04/23 12:13:32;;;;;;;11.90;6.97;;;21.50;41.50;;;;;;5115356;28;20020;-74
2021/04/23 12:16:03;;;;;;;15.27;8.32;;;21.30;40.50;;;;;;5119367;28;20034;-76
2021/04/23 12:18:30;;;;;;;12.75;4.95;;;21.60;44.40;;;;;;5120895;28;20024;-82
2021/04/23 12:21:01;;;;;;;9.10;4.60;;;22.00;43.60;;;;;;5121569;28;20046;-75
2021/04/23 12:23:30;;;;;;;10.25;5.82;;;22.20;41.60;;;;;;5121477;28;20058;-72
2021/04/23 12:25:58;;;;;;;15.20;6.47;;;21.80;39.60;;;;;;5120169;28;20011;-73
2021/04/23 12:28:53;;;;;;;12.70;7.07;;;21.90;39.90;;;;;;5119875;28;20032;-79
2021/04/23 12:31:25;;;;;;;14.20;7.80;;;21.60;40.70;;;;;;5123202;28;20042;-79
2021/04/23 12:34:02;;;;;;;9.45;5.07;;;21.50;41.20;;;;;;5121740;28;20115;-73
2021/04/23 12:36:42;;;;;;;11.57;5.82;;;21.70;41.00;;;;;;5120469;28;20153;-79
2021/04/23 12:39:12;;;;;;;10.98;4.82;;;21.40;41.10;;;;;;5121418;28;20122;-76
2021/04/23 12:41:50;;;;;;;8.93;4.32;;;21.90;42.70;;;;;;5122767;28;20101;-79
2021/04/23 12:44:30;;;;;;;9.50;3.67;;;22.00;41.10;;;;;;5121909;28;20023;-72